sensor_id;sensor_type;location;lat;lon;timestamp;P1;durP1;ratioP1;P2;durP2;ratioP2
62106;SDS011;48087;32.600;-97.100;2023-03-01T00:02:25;4;;;4;;
62106;SDS011;48087;32.600;-97.100;2023-03-01T00:24:50;1;;;1;;
62106;SDS011;48087;32.600;-97.100;2023-03-01T00:47:14;3;;;3;;
62106;SDS011;48087;32.600;-97.100;2023-03-01T01:09:38;4;;;4;;
62106;SDS011;48087;32.600;-97.100;2023-03-01T01:32:00;4;;;4;;
62106;SDS011;48087;32.600;-97.100;2023-03-01T02:16:46;8;;;8;;
62106;SDS011;48087;32.600;-97.100;2023-03-01T02:39:08;13;;;13;;
62106;SDS011;48087;32.600;-97.100;2023-03-01T03:01:31;13;;;13;;
62106;SDS011;48087;32.600;-97.100;2023-03-01T03:23:51;13;;;13;;
62106;SDS011;48087;32.600;-97.100;2023-03-01T03:46:13;8;;;8;;
62106;SDS011;48087;32.600;-97.100;2023-03-01T04:08:35;10;;;10;;
62106;SDS011;48087;32.600;-97.100;2023-03-01T04:30:57;13;;;13;;
62106;SDS011;48087;32.600;-97.100;2023-03-01T04:53:17;13;;;13;;
62106;SDS011;48087;32.600;-97.100;2023-03-01T05:15:38;13;;;13;;
62106;SDS011;48087;32.600;-97.100;2023-03-01T05:37:59;19;;;17;;
62106;SDS011;48087;32.600;-97.100;2023-03-01T06:00:20;18;;;16;;
62106;SDS011;48087;32.600;-97.100;2023-03-01T06:22:40;25;;;22;;
62106;SDS011;48087;32.600;-97.100;2023-03-01T06:45:01;41;;;38;;
62106;SDS011;48087;32.600;-97.100;2023-03-01T07:07:22;51;;;45;;
62106;SDS011;48087;32.600;-97.100;2023-03-01T07:29:43;51;;;45;;
62106;SDS011;48087;32.600;-97.100;2023-03-01T07:52:03;51;;;45;;
62106;SDS011;48087;32.600;-97.100;2023-03-01T08:14:24;55;;;48;;
62106;SDS011;48087;32.600;-97.100;2023-03-01T08:36:45;51;;;45;;
62106;SDS011;48087;32.600;-97.100;2023-03-01T08:59:06;57;;;50;;
62106;SDS011;48087;32.600;-97.100;2023-03-01T09:21:26;51;;;45;;
62106;SDS011;48087;32.600;-97.100;2023-03-01T09:43:47;51;;;45;;
62106;SDS011;48087;32.600;-97.100;2023-03-01T10:06:09;55;;;48;;
62106;SDS011;48087;32.600;-97.100;2023-03-01T10:28:29;58;;;51;;
62106;SDS011;48087;32.600;-97.100;2023-03-01T10:50:48;57;;;50;;
62106;SDS011;48087;32.600;-97.100;2023-03-01T11:13:12;62;;;53;;
62106;SDS011;48087;32.600;-97.100;2023-03-01T11:35:28;55;;;48;;
62106;SDS011;48087;32.600;-97.100;2023-03-01T11:57:54;62;;;53;;
62106;SDS011;48087;32.600;-97.100;2023-03-01T12:20:12;51;;;45;;
62106;SDS011;48087;32.600;-97.100;2023-03-01T12:42:31;57;;;50;;
62106;SDS011;48087;32.600;-97.100;2023-03-01T13:04:53;76;;;65;;
62106;SDS011;48087;32.600;-97.100;2023-03-01T13:27:11;28;;;24;;
62106;SDS011;48087;32.600;-97.100;2023-03-01T13:49:30;25;;;22;;
62106;SDS011;48087;32.600;-97.100;2023-03-01T14:11:52;14;;;14;;
62106;SDS011;48087;32.600;-97.100;2023-03-01T14:34:16;24;;;21;;
62106;SDS011;48087;32.600;-97.100;2023-03-01T14:56:25;20;;;17;;
62106;SDS011;48087;32.600;-97.100;2023-03-01T15:18:45;13;;;13;;
62106;SDS011;48087;32.600;-97.100;2023-03-01T15:41:05;15;;;14;;
62106;SDS011;48087;32.600;-97.100;2023-03-01T15:42:35;17;;;15;;
62106;SDS011;48087;32.600;-97.100;2023-03-01T16:04:32;18;;;16;;
62106;SDS011;48087;32.600;-97.100;2023-03-01T16:26:53;17;;;15;;
62106;SDS011;48087;32.600;-97.100;2023-03-01T16:49:11;22;;;19;;
62106;SDS011;48087;32.600;-97.100;2023-03-01T17:11:30;20;;;17;;
62106;SDS011;48087;32.600;-97.100;2023-03-01T17:33:49;24;;;21;;
62106;SDS011;48087;32.600;-97.100;2023-03-01T17:56:09;14;;;14;;
62106;SDS011;48087;32.600;-97.100;2023-03-01T18:18:28;20;;;17;;
62106;SDS011;48087;32.600;-97.100;2023-03-01T18:40:49;20;;;17;;
62106;SDS011;48087;32.600;-97.100;2023-03-01T19:03:10;20;;;17;;
62106;SDS011;48087;32.600;-97.100;2023-03-01T19:25:29;20;;;17;;
62106;SDS011;48087;32.600;-97.100;2023-03-01T19:47:50;20;;;17;;
62106;SDS011;48087;32.600;-97.100;2023-03-01T20:10:11;20;;;17;;
62106;SDS011;48087;32.600;-97.100;2023-03-01T20:32:31;28;;;24;;
62106;SDS011;48087;32.600;-97.100;2023-03-01T21:17:12;24;;;21;;
62106;SDS011;48087;32.600;-97.100;2023-03-01T21:39:32;20;;;17;;
62106;SDS011;48087;32.600;-97.100;2023-03-01T22:01:52;19;;;17;;
62106;SDS011;48087;32.600;-97.100;2023-03-01T22:24:13;20;;;17;;
62106;SDS011;48087;32.600;-97.100;2023-03-01T22:46:34;23;;;20;;
62106;SDS011;48087;32.600;-97.100;2023-03-01T23:08:54;23;;;20;;
62106;SDS011;48087;32.600;-97.100;2023-03-01T23:31:15;27;;;23;;
62106;SDS011;48087;32.600;-97.100;2023-03-01T23:53:35;21;;;18;;
